Time;durP1;ratioP1;P1;durP2;ratioP2;P2;SDS_P1;SDS_P2;PMS_P1;PMS_P2;Temp;Humidity;BMP_temperature;BMP_pressure;BME280_temperature;BME280_humidity;BME280_pressure;Samples;Min_cycle;Max_cycle;Signal;HPM_P1;HPM_P2
2022/01/24 00:01:57;;;;;;;1.67;1.33;;;10.30;50.50;;;;;;5074771;28;20711;-86
2022/01/24 00:04:24;;;;;;;1.90;1.67;;;10.40;50.90;;;;;;5075314;28;20555;-86
2022/01/24 00:06:51;;;;;;;3.57;1.77;;;10.50;51.10;;;;;;5074291;28;20456;-86
2022/01/24 00:09:19;;;;;;;2.67;1.50;;;10.50;51.30;;;;;;5074063;28;20749;-86
2022/01/24 00:11:59;;;;;;;1.40;1.20;;;10.50;51.10;;;;;;5076249;28;20462;-86
2022/01/24 00:17:13;;;;;;;1.40;1.30;;;10.50;51.10;;;;;;5060245;28;20508;-86
2022/01/24 00:28:03;;;;;;;1.40;1.30;;;9.60;52.20;;;;;;5033001;28;20450;-86
2022/01/24 00:30:31;;;;;;;1.50;1.20;;;9.70;51.70;;;;;;5074646;28;20437;-86
2022/01/24 00:32:58;;;;;;;1.40;1.30;;;9.80;52.10;;;;;;5074992;28;20493;-86
2022/01/24 00:35:25;;;;;;;1.40;1.30;;;10.00;51.00;;;;;;5071171;28;20443;-86
2022/01/24 00:37:52;;;;;;;1.67;1.50;;;10.00;51.00;;;;;;5070212;28;20835;-86
2022/01/24 00:40:19;;;;;;;1.60;1.40;;;10.10;51.00;;;;;;5075690;28;20486;-85
2022/01/24 00:42:52;;;;;;;1.70;1.17;;;10.10;50.40;;;;;;5073123;28;20458;-86
2022/01/24 00:45:30;;;;;;;1.30;1.00;;;10.00;50.00;;;;;;5074150;28;20533;-86
2022/01/24 00:48:22;;;;;;;1.63;1.30;;;9.80;51.20;;;;;;5070628;28;20487;-85
2022/01/24 00:53:50;;;;;;;1.47;1.30;;;10.00;50.50;;;;;;5074465;28;20478;-86
2022/01/24 00:56:18;;;;;;;1.30;1.20;;;10.00;49.60;;;;;;5071733;28;20456;-86
2022/01/24 00:58:45;;;;;;;1.10;1.00;;;10.00;49.60;;;;;;5074698;28;20457;-86
2022/01/24 01:01:13;;;;;;;1.87;1.40;;;10.00;50.10;;;;;;5076217;28;20502;-86
2022/01/24 01:03:40;;;;;;;2.03;1.30;;;10.10;50.00;;;;;;5073734;28;20467;-86
2022/01/24 01:06:08;;;;;;;2.47;1.40;;;10.30;49.90;;;;;;5072362;28;20571;-86
2022/01/24 01:19:39;;;;;;;1.30;1.20;;;10.40;49.50;;;;;;5071020;28;20456;-84
2022/01/24 01:22:06;;;;;;;1.10;1.00;;;10.20;48.90;;;;;;5074206;28;20793;-86
2022/01/24 01:24:39;;;;;;;1.20;1.10;;;10.30;50.20;;;;;;5077472;28;21136;-86
2022/01/24 01:27:11;;;;;;;1.40;0.97;;;10.30;50.20;;;;;;5072224;28;20488;-86
2022/01/24 01:29:49;;;;;;;0.97;0.93;;;10.40;50.20;;;;;;5074193;28;20966;-84
2022/01/24 01:32:28;;;;;;;1.13;1.00;;;10.40;49.80;;;;;;5073272;28;20460;-86
2022/01/24 01:35:13;;;;;;;2.87;1.20;;;10.30;49.90;;;;;;5069542;28;20998;-86
2022/01/24 01:54:26;;;;;;;1.27;1.17;;;9.80;50.80;;;;;;5071987;28;20531;-86
2022/01/24 01:56:53;;;;;;;0.87;0.87;;;9.80;50.80;;;;;;5070506;28;20456;-86
2022/01/24 01:59:20;;;;;;;1.77;1.00;;;9.90;50.70;;;;;;5072086;28;20868;-86
2022/01/24 02:01:47;;;;;;;3.07;1.13;;;10.10;50.00;;;;;;5073376;28;20472;-86
2022/01/24 02:04:16;;;;;;;1.10;0.93;;;10.20;50.30;;;;;;5070322;28;20480;-84
2022/01/24 02:06:44;;;;;;;2.50;0.90;;;10.20;49.60;;;;;;5069653;28;20454;-86
2022/01/24 02:09:13;;;;;;;1.57;1.30;;;10.20;49.90;;;;;;5074215;28;20517;-86
2022/01/24 02:11:40;;;;;;;1.27;1.17;;;10.30;50.00;;;;;;5075183;28;20956;-85
2022/01/24 02:14:11;;;;;;;1.20;1.07;;;10.30;49.60;;;;;;5073044;28;20482;-85
2022/01/24 02:16:45;;;;;;;1.60;1.50;;;10.30;49.50;;;;;;5074457;28;21262;-86
2022/01/24 02:19:23;;;;;;;2.13;1.40;;;10.30;49.40;;;;;;5070235;28;20457;-84
2022/01/24 02:22:07;;;;;;;2.03;1.57;;;10.20;50.10;;;;;;5070881;28;20520;-86
2022/01/24 02:24:42;;;;;;;1.30;1.20;;;10.20;49.20;;;;;;5077087;28;20487;-86
2022/01/24 02:27:11;;;;;;;1.57;1.47;;;10.20;49.60;;;;;;5070382;28;20464;-86
2022/01/24 02:29:52;;;;;;;2.13;1.60;;;10.20;49.90;;;;;;5071430;28;20467;-84
2022/01/24 02:32:19;;;;;;;2.07;1.60;;;10.20;49.40;;;;;;5071915;28;20538;-86
2022/01/24 02:34:49;;;;;;;1.87;1.67;;;10.20;49.40;;;;;;5070288;28;20480;-86
2022/01/24 02:37:20;;;;;;;1.87;1.50;;;10.00;49.40;;;;;;5073430;28;20460;-86
2022/01/24 02:39:52;;;;;;;1.63;1.53;;;10.10;49.40;;;;;;5073038;28;20452;-86
2022/01/24 02:48:24;;;;;;;2.33;1.70;;;10.40;49.80;;;;;;5007136;28;20446;-86
2022/01/24 02:53:39;;;;;;;2.53;2.00;;;10.50;49.50;;;;;;5072777;28;20943;-85
2022/01/24 02:56:07;;;;;;;2.40;2.13;;;10.60;49.80;;;;;;5072147;28;20458;-86
2022/01/24 02:58:35;;;;;;;2.43;2.00;;;10.50;49.80;;;;;;5072310;28;20451;-86
2022/01/24 03:01:06;;;;;;;1.83;1.73;;;10.50;49.50;;;;;;5071754;28;20480;-86
2022/01/24 03:03:33;;;;;;;2.30;2.10;;;10.60;50.10;;;;;;5070632;28;20920;-86
2022/01/24 03:06:00;;;;;;;3.00;2.00;;;10.60;50.10;;;;;;5074444;28;20522;-85
2022/01/24 03:08:27;;;;;;;1.90;1.70;;;10.40;50.00;;;;;;5080391;28;20598;-86
2022/01/24 03:10:58;;;;;;;1.77;1.63;;;10.20;49.90;;;;;;5074161;28;20567;-86
2022/01/24 03:13:34;;;;;;;2.20;2.00;;;10.20;50.40;;;;;;5076335;28;20477;-84
2022/01/24 03:16:04;;;;;;;2.23;1.80;;;10.30;50.50;;;;;;5078195;28;20774;-86
2022/01/24 03:18:31;;;;;;;1.70;1.60;;;10.20;49.20;;;;;;5073960;28;20466;-86
2022/01/24 03:20:58;;;;;;;3.00;2.00;;;10.20;49.70;;;;;;5078011;28;20477;-86
2022/01/24 03:23:26;;;;;;;2.83;2.07;;;10.20;49.70;;;;;;5078510;28;20483;-86
2022/01/24 03:25:54;;;;;;;1.67;1.57;;;10.20;49.60;;;;;;5073070;28;20654;-86
2022/01/24 03:28:24;;;;;;;1.90;1.80;;;10.20;49.50;;;;;;5077514;28;20532;-85
2022/01/24 03:30:51;;;;;;;2.63;1.63;;;10.10;49.80;;;;;;5072920;28;20465;-86
2022/01/24 03:33:18;;;;;;;1.60;1.50;;;10.20;50.00;;;;;;5076569;28;20477;-86
2022/01/24 03:35:45;;;;;;;2.43;2.23;;;10.30;50.40;;;;;;5075269;28;20490;-84
2022/01/24 03:38:14;;;;;;;1.80;1.60;;;10.50;50.40;;;;;;5072925;28;20530;-86
2022/01/24 03:40:41;;;;;;;1.70;1.60;;;10.50;50.30;;;;;;5074660;28;20462;-86
2022/01/24 03:43:08;;;;;;;2.80;1.70;;;10.60;50.60;;;;;;5077285;28;20483;-86
2022/01/24 03:45:41;;;;;;;1.60;1.50;;;10.50;50.00;;;;;;5073743;28;20452;-86
2022/01/24 03:48:11;;;;;;;2.33;1.93;;;10.40;49.50;;;;;;5074376;28;20866;-86
2022/01/24 03:50:39;;;;;;;2.10;1.77;;;10.00;50.10;;;;;;5074797;28;20916;-85
2022/01/24 03:53:06;;;;;;;2.30;2.10;;;9.90;50.70;;;;;;5072625;28;20476;-86
2022/01/24 03:55:34;;;;;;;2.30;2.10;;;9.70;51.10;;;;;;5056099;28;20460;-86
2022/01/24 03:58:02;;;;;;;2.33;2.13;;;9.60;51.30;;;;;;5076634;28;20883;-86
2022/01/24 04:00:29;;;;;;;3.30;2.23;;;9.80;51.30;;;;;;5076785;28;20468;-86
2022/01/24 04:02:58;;;;;;;2.00;1.90;;;9.90;51.00;;;;;;5080300;28;20813;-86
2022/01/24 04:05:25;;;;;;;2.97;1.93;;;9.90;51.10;;;;;;5078175;28;20458;-85
2022/01/24 04:07:52;;;;;;;5.00;1.80;;;9.80;51.00;;;;;;5077742;28;20535;-86
2022/01/24 04:10:21;;;;;;;1.97;1.77;;;9.70;50.60;;;;;;5075624;28;20483;-86
2022/01/24 04:12:50;;;;;;;3.10;2.27;;;9.50;51.40;;;;;;5073876;28;20536;-85
2022/01/24 04:15:35;;;;;;;2.27;2.03;;;9.50;51.50;;;;;;5074033;28;20463;-85
2022/01/24 04:18:26;;;;;;;2.37;2.17;;;9.70;51.40;;;;;;5072269;28;20532;-85
2022/01/24 04:23:40;;;;;;;3.63;2.37;;;10.20;51.10;;;;;;5073355;28;20476;-86
2022/01/24 04:26:08;;;;;;;2.87;1.80;;;10.00;50.00;;;;;;5073099;28;20655;-85
2022/01/24 04:28:35;;;;;;;2.50;2.30;;;10.20;50.80;;;;;;5070731;28;20459;-86
2022/01/24 04:31:01;;;;;;;7.10;4.40;;;10.30;51.00;;;;;;5073415;28;20455;-86
2022/01/24 04:33:30;;;;;;;16.30;8.40;;;10.40;51.20;;;;;;5069516;28;21069;-86
2022/01/24 04:35:57;;;;;;;14.47;7.63;;;10.40;50.70;;;;;;5072113;28;20536;-86
2022/01/24 04:38:24;;;;;;;20.60;9.40;;;10.50;50.30;;;;;;5076800;28;21221;-86
2022/01/24 04:40:55;;;;;;;11.43;7.60;;;10.50;50.30;;;;;;5077831;28;20814;-86
2022/01/24 04:43:32;;;;;;;11.97;7.10;;;10.50;49.80;;;;;;5075281;28;20501;-86
2022/01/24 04:46:10;;;;;;;8.47;5.43;;;10.50;49.80;;;;;;5073839;28;21932;-86
2022/01/24 04:51:37;;;;;;;5.93;2.57;;;10.50;51.00;;;;;;5072724;28;20464;-86
2022/01/24 04:54:37;;;;;;;6.97;2.70;;;10.40;49.30;;;;;;5074792;28;20518;-86
2022/01/24 04:57:02;;;;;;;3.97;3.23;;;10.40;49.60;;;;;;5076932;28;20504;-84
2022/01/24 04:59:29;;;;;;;4.83;3.70;;;10.40;49.80;;;;;;5073501;28;20463;-86
2022/01/24 05:01:56;;;;;;;6.10;3.77;;;10.50;50.00;;;;;;5074038;28;20839;-86
2022/01/24 05:04:25;;;;;;;4.03;2.97;;;10.50;50.20;;;;;;5075389;28;20484;-86
2022/01/24 05:06:52;;;;;;;3.93;2.47;;;10.50;50.00;;;;;;5071951;28;20472;-86
2022/01/24 05:09:20;;;;;;;4.70;2.50;;;10.40;49.80;;;;;;5076908;28;20460;-86
2022/01/24 05:11:52;;;;;;;5.60;2.00;;;10.30;49.60;;;;;;5071993;28;20809;-85
2022/01/24 05:25:20;;;;;;;4.00;3.40;;;10.40;50.30;;;;;;5073228;28;20500;-86
2022/01/24 05:27:47;;;;;;;2.97;2.63;;;10.10;49.40;;;;;;5070614;28;20977;-86
2022/01/24 05:30:16;;;;;;;3.60;3.17;;;10.20;50.00;;;;;;5062804;28;20668;-86
2022/01/24 05:32:44;;;;;;;4.17;3.00;;;10.30;50.40;;;;;;5073473;28;20461;-85
2022/01/24 05:35:12;;;;;;;3.20;2.90;;;10.40;50.50;;;;;;5076811;28;21006;-86
2022/01/24 05:37:40;;;;;;;4.37;3.73;;;10.40;50.50;;;;;;5073075;28;20452;-83
2022/01/24 05:40:08;;;;;;;4.83;2.87;;;10.50;50.70;;;;;;5073089;28;20961;-86
2022/01/24 05:42:35;;;;;;;3.77;2.87;;;10.20;49.40;;;;;;5053046;28;20472;-85
2022/01/24 05:45:04;;;;;;;2.70;2.40;;;10.10;49.80;;;;;;5071194;28;20452;-86
2022/01/24 05:47:31;;;;;;;2.50;2.30;;;9.90;50.50;;;;;;5070619;28;20448;-86
2022/01/24 05:49:58;;;;;;;4.67;3.37;;;9.90;50.60;;;;;;5071905;28;20467;-86
2022/01/24 05:52:26;;;;;;;3.10;2.80;;;9.90;51.00;;;;;;5073253;28;20453;-85
2022/01/24 05:54:53;;;;;;;4.90;3.83;;;10.10;50.30;;;;;;5073485;28;20477;-86
2022/01/24 05:57:20;;;;;;;5.57;4.00;;;10.20;50.50;;;;;;5069810;28;20453;-84
2022/01/24 05:59:47;;;;;;;5.00;4.10;;;10.30;50.20;;;;;;5073308;28;20921;-86
2022/01/24 06:02:14;;;;;;;7.93;4.47;;;10.30;50.50;;;;;;5071591;28;20492;-86
2022/01/24 06:04:41;;;;;;;6.00;3.60;;;10.40;50.80;;;;;;5073553;28;20591;-85
2022/01/24 06:07:08;;;;;;;4.20;3.47;;;10.40;50.50;;;;;;5074596;28;20590;-86
2022/01/24 06:09:36;;;;;;;4.13;3.53;;;10.40;50.50;;;;;;5057683;28;20811;-86
2022/01/24 06:12:04;;;;;;;3.40;3.03;;;10.40;50.10;;;;;;5072290;28;20451;-84
2022/01/24 06:14:31;;;;;;;4.43;3.60;;;10.40;50.30;;;;;;5071026;28;20642;-86
2022/01/24 06:16:58;;;;;;;3.90;3.60;;;10.40;50.60;;;;;;5070993;28;20451;-86
2022/01/24 06:19:25;;;;;;;5.23;3.50;;;10.50;50.30;;;;;;5071154;28;20472;-85
2022/01/24 06:21:52;;;;;;;4.40;3.80;;;10.50;50.00;;;;;;5066314;28;20943;-85
2022/01/24 06:24:19;;;;;;;5.13;3.60;;;10.50;49.80;;;;;;5065649;28;20480;-85
2022/01/24 06:26:48;;;;;;;4.20;3.03;;;10.40;49.80;;;;;;5068709;28;20452;-85
2022/01/24 06:29:15;;;;;;;4.70;3.80;;;10.30;49.70;;;;;;5067395;28;20460;-85
2022/01/24 06:31:41;;;;;;;3.93;3.57;;;10.20;49.70;;;;;;5072835;28;20551;-85
2022/01/24 06:34:08;;;;;;;10.17;5.90;;;10.00;49.20;;;;;;5068902;28;20483;-85
2022/01/24 06:36:35;;;;;;;6.17;4.67;;;10.10;50.00;;;;;;5066789;28;20869;-85
2022/01/24 06:39:04;;;;;;;5.37;4.80;;;10.00;49.30;;;;;;5070063;28;20471;-85
2022/01/24 06:41:34;;;;;;;5.70;5.10;;;10.10;49.40;;;;;;5074327;28;20467;-85
2022/01/24 06:44:03;;;;;;;9.27;5.20;;;10.00;49.60;;;;;;5077060;28;20579;-85
2022/01/24 06:46:31;;;;;;;6.20;5.03;;;10.00;49.80;;;;;;5073387;28;20527;-86
2022/01/24 06:48:58;;;;;;;6.97;4.70;;;10.10;50.20;;;;;;5073717;28;20463;-85
2022/01/24 06:51:25;;;;;;;8.70;5.70;;;10.00;49.60;;;;;;5072339;28;20452;-86
2022/01/24 06:53:52;;;;;;;9.53;7.10;;;10.10;50.60;;;;;;5075026;28;20483;-85
2022/01/24 06:56:20;;;;;;;9.30;7.00;;;10.20;50.70;;;;;;5075220;28;20456;-85
2022/01/24 06:58:47;;;;;;;5.77;4.80;;;10.30;50.70;;;;;;5072053;28;20481;-85
2022/01/24 07:01:15;;;;;;;6.27;3.87;;;10.40;50.10;;;;;;5071701;28;20453;-86
2022/01/24 07:03:42;;;;;;;4.60;3.37;;;10.40;50.20;;;;;;5070739;28;20467;-85
2022/01/24 07:06:09;;;;;;;6.47;5.03;;;10.40;50.10;;;;;;5057070;28;20640;-84
2022/01/24 07:08:36;;;;;;;3.60;3.30;;;10.40;50.00;;;;;;5071293;28;20526;-83
2022/01/24 07:11:03;;;;;;;4.23;3.67;;;10.40;49.80;;;;;;5074056;28;20450;-85
2022/01/24 07:13:30;;;;;;;3.37;3.07;;;10.20;50.00;;;;;;5071800;28;21021;-85
2022/01/24 07:16:01;;;;;;;3.00;2.73;;;10.20;50.40;;;;;;5070318;28;20456;-85
2022/01/24 07:21:14;;;;;;;3.03;2.80;;;10.20;50.40;;;;;;5070507;28;20593;-85
2022/01/24 07:23:41;;;;;;;3.40;3.10;;;10.20;50.80;;;;;;5072573;28;20471;-84
2022/01/24 07:26:08;;;;;;;5.50;3.20;;;10.30;51.70;;;;;;5071144;28;20456;-84
2022/01/24 07:28:35;;;;;;;5.63;2.83;;;10.40;51.70;;;;;;5070559;28;20456;-84
2022/01/24 07:31:02;;;;;;;4.37;3.40;;;10.30;49.50;;;;;;5070266;28;20451;-86
2022/01/24 07:33:31;;;;;;;6.57;4.30;;;10.30;50.20;;;;;;5073653;28;20565;-86
2022/01/24 07:35:58;;;;;;;6.47;4.70;;;10.40;50.50;;;;;;5072425;28;20702;-84
2022/01/24 07:38:25;;;;;;;5.13;3.40;;;10.40;50.40;;;;;;5070366;28;20463;-86
2022/01/24 07:40:54;;;;;;;8.13;4.00;;;10.40;50.30;;;;;;5058370;28;20464;-86
2022/01/24 07:43:21;;;;;;;3.67;2.97;;;10.50;50.40;;;;;;5071597;28;20563;-85
2022/01/24 07:45:49;;;;;;;3.60;3.30;;;10.50;50.30;;;;;;5073002;28;20459;-86
2022/01/24 07:48:18;;;;;;;1.77;1.60;;;10.50;50.00;;;;;;5071807;28;20455;-86
2022/01/24 07:50:47;;;;;;;2.50;2.30;;;10.40;49.70;;;;;;5070269;28;20471;-86
2022/01/24 07:53:16;;;;;;;3.43;2.63;;;10.30;49.40;;;;;;5069821;28;20480;-86
2022/01/24 07:55:43;;;;;;;3.73;2.00;;;10.10;49.50;;;;;;5071397;28;20461;-86
2022/01/24 07:58:11;;;;;;;4.60;3.10;;;9.90;50.50;;;;;;5069625;28;20521;-86
2022/01/24 08:00:38;;;;;;;6.33;4.60;;;9.70;51.30;;;;;;5068679;28;20471;-86
2022/01/24 08:03:07;;;;;;;5.27;4.80;;;9.80;51.50;;;;;;5071866;28;20833;-86
2022/01/24 08:05:34;;;;;;;5.70;5.17;;;10.00;51.00;;;;;;5070810;28;20460;-86
2022/01/24 08:08:03;;;;;;;4.50;4.10;;;10.00;50.00;;;;;;5073635;28;20555;-86
2022/01/24 08:10:30;;;;;;;4.20;3.90;;;10.10;50.10;;;;;;5074471;28;20462;-86
2022/01/24 08:12:57;;;;;;;2.60;2.40;;;10.00;50.20;;;;;;5054210;28;20504;-87
2022/01/24 08:15:25;;;;;;;2.70;2.50;;;9.90;50.80;;;;;;5078546;28;20839;-87
2022/01/24 08:17:52;;;;;;;3.33;2.80;;;10.00;50.00;;;;;;5072095;28;20471;-88
2022/01/24 08:20:20;;;;;;;2.70;2.50;;;10.00;49.70;;;;;;5069135;28;20543;-87
2022/01/24 08:22:47;;;;;;;1.97;1.87;;;10.10;50.00;;;;;;5075599;28;20482;-87
2022/01/24 08:25:17;;;;;;;1.77;1.67;;;10.10;49.80;;;;;;5073827;28;20467;-87
2022/01/24 08:27:46;;;;;;;2.37;1.80;;;10.20;50.20;;;;;;5071057;28;20722;-88
2022/01/24 08:30:16;;;;;;;2.80;2.43;;;10.20;50.00;;;;;;5069151;28;20737;-87
2022/01/24 08:32:43;;;;;;;2.23;2.00;;;10.20;49.70;;;;;;5072453;28;20832;-86
2022/01/24 08:35:11;;;;;;;3.20;1.83;;;10.20;49.90;;;;;;5071486;28;20459;-87
2022/01/24 08:37:38;;;;;;;3.37;2.30;;;10.30;50.50;;;;;;5069585;28;20495;-86
2022/01/24 08:40:07;;;;;;;3.00;2.00;;;10.40;50.40;;;;;;5070082;28;20463;-87
2022/01/24 08:42:41;;;;;;;5.50;2.90;;;10.30;49.90;;;;;;5072727;28;20486;-86
2022/01/24 08:47:54;;;;;;;6.90;4.10;;;10.20;50.00;;;;;;5074399;28;20531;-86
2022/01/24 08:50:26;;;;;;;4.37;3.47;;;10.00;50.30;;;;;;5069587;28;20460;-87
2022/01/24 08:52:54;;;;;;;3.73;3.00;;;10.00;50.50;;;;;;5073206;28;20456;-86
2022/01/24 08:55:21;;;;;;;2.43;2.23;;;10.20;50.40;;;;;;5072460;28;20462;-86
2022/01/24 08:57:50;;;;;;;2.90;2.17;;;10.30;50.30;;;;;;5069003;28;20943;-86
2022/01/24 09:00:17;;;;;;;2.13;1.93;;;10.30;50.20;;;;;;5069084;28;20492;-86
2022/01/24 09:02:44;;;;;;;4.80;2.80;;;10.30;50.10;;;;;;5068926;28;20488;-86
2022/01/24 09:05:11;;;;;;;3.20;2.17;;;10.20;49.90;;;;;;5069314;28;20467;-86
2022/01/24 09:07:38;;;;;;;5.13;2.80;;;10.30;50.20;;;;;;5066403;28;20974;-84
2022/01/24 09:10:07;;;;;;;3.27;2.87;;;10.30;49.60;;;;;;5071057;28;20872;-86
2022/01/24 09:12:34;;;;;;;2.77;1.90;;;10.20;50.00;;;;;;5067361;28;20471;-86
2022/01/24 09:15:03;;;;;;;4.60;4.00;;;10.20;50.30;;;;;;5053155;28;20917;-85
2022/01/24 09:17:30;;;;;;;6.13;4.20;;;10.30;50.50;;;;;;5070212;28;20479;-85
2022/01/24 09:19:57;;;;;;;6.90;3.60;;;10.30;50.10;;;;;;5068723;28;20743;-86
2022/01/24 09:22:24;;;;;;;4.00;2.73;;;10.30;50.40;;;;;;5072523;28;20475;-87
2022/01/24 09:24:51;;;;;;;3.10;2.77;;;10.30;50.40;;;;;;5063174;28;21021;-86
2022/01/24 09:27:18;;;;;;;2.50;2.30;;;10.40;50.30;;;;;;5070824;28;20905;-86
2022/01/24 09:29:45;;;;;;;3.30;2.03;;;10.40;50.10;;;;;;5070706;28;20760;-86
2022/01/24 09:32:13;;;;;;;2.57;2.37;;;10.30;50.00;;;;;;5053000;28;20613;-86
2022/01/24 09:34:40;;;;;;;5.53;2.30;;;10.30;50.80;;;;;;5072980;28;20483;-85
2022/01/24 09:37:07;;;;;;;3.60;3.30;;;10.20;50.00;;;;;;5071076;28;20457;-86
2022/01/24 09:39:35;;;;;;;3.70;2.50;;;10.30;50.40;;;;;;5053537;28;20479;-85
2022/01/24 09:42:02;;;;;;;2.83;2.53;;;10.30;50.30;;;;;;5070369;28;20456;-86
2022/01/24 09:44:29;;;;;;;3.97;2.40;;;10.40;50.70;;;;;;5069978;28;20471;-87
2022/01/24 09:46:56;;;;;;;2.53;1.60;;;10.30;50.30;;;;;;5069179;28;20951;-85
2022/01/24 09:49:24;;;;;;;4.20;1.83;;;10.30;50.20;;;;;;5067581;28;20463;-85
2022/01/24 09:51:51;;;;;;;2.53;2.33;;;10.10;50.10;;;;;;5068803;28;20466;-85
2022/01/24 09:54:19;;;;;;;10.63;2.63;;;10.20;50.70;;;;;;5070716;28;20572;-86
2022/01/24 09:56:46;;;;;;;2.90;2.33;;;10.20;50.80;;;;;;5070128;28;20459;-86
2022/01/24 09:59:13;;;;;;;4.37;2.20;;;10.20;50.80;;;;;;5072148;28;20546;-87
2022/01/24 10:01:42;;;;;;;2.40;2.20;;;10.10;50.60;;;;;;5052192;28;20574;-86
2022/01/24 10:04:15;;;;;;;3.10;2.80;;;10.00;50.80;;;;;;5073507;28;20562;-86
2022/01/24 10:07:01;;;;;;;3.53;2.67;;;10.10;50.90;;;;;;5072954;28;20498;-86
2022/01/24 10:09:34;;;;;;;3.20;2.60;;;10.20;50.80;;;;;;5072637;28;20564;-84
2022/01/24 10:12:12;;;;;;;6.50;2.37;;;10.30;50.60;;;;;;5070280;28;20460;-86
2022/01/24 10:17:26;;;;;;;2.17;2.00;;;10.30;50.40;;;;;;5071754;28;20965;-86
2022/01/24 10:19:53;;;;;;;2.13;2.03;;;10.20;50.30;;;;;;5073997;28;20456;-85
2022/01/24 10:22:24;;;;;;;3.20;2.90;;;10.20;51.00;;;;;;5069608;28;20545;-84
2022/01/24 10:24:54;;;;;;;3.57;2.40;;;10.30;50.90;;;;;;5068681;28;20476;-86
2022/01/24 10:27:24;;;;;;;3.17;2.90;;;10.30;50.40;;;;;;5074432;28;20967;-86
2022/01/24 10:29:54;;;;;;;4.43;2.43;;;10.30;50.60;;;;;;5063481;28;20461;-86
2022/01/24 10:32:30;;;;;;;5.27;3.43;;;10.10;50.90;;;;;;5073187;28;20460;-86
2022/01/24 10:35:17;;;;;;;5.20;3.40;;;10.30;51.10;;;;;;5071329;28;20476;-86
2022/01/24 10:37:48;;;;;;;3.60;2.00;;;10.40;50.80;;;;;;5070543;28;20459;-88
2022/01/24 10:40:31;;;;;;;2.73;2.40;;;10.30;50.10;;;;;;5037088;28;21232;-89
2022/01/24 10:43:17;;;;;;;10.43;2.60;;;10.30;50.40;;;;;;5018170;28;20479;-88
2022/01/24 10:45:46;;;;;;;2.90;2.60;;;10.30;50.60;;;;;;5043929;28;20466;-86
2022/01/24 10:48:14;;;;;;;5.23;2.47;;;10.30;50.20;;;;;;5045102;28;20561;-91
2022/01/24 10:50:41;;;;;;;3.20;3.00;;;10.00;50.70;;;;;;5041823;28;20443;-88
2022/01/24 10:53:16;;;;;;;3.67;2.87;;;10.20;51.20;;;;;;5058911;28;20558;-88
2022/01/24 10:55:45;;;;;;;4.50;3.70;;;10.10;51.00;;;;;;5043282;28;20954;-89
2022/01/24 10:58:18;;;;;;;5.20;4.33;;;10.00;51.10;;;;;;5054989;28;20486;-88
2022/01/24 11:00:47;;;;;;;7.37;4.10;;;9.90;52.30;;;;;;5055382;28;20579;-87
2022/01/24 11:03:19;;;;;;;5.47;4.53;;;9.90;52.30;;;;;;5051244;28;20529;-88
2022/01/24 11:05:47;;;;;;;6.47;4.90;;;10.00;51.70;;;;;;5052784;28;21389;-88
2022/01/24 11:08:17;;;;;;;9.43;4.77;;;10.30;51.70;;;;;;5059570;28;20982;-88
2022/01/24 11:10:47;;;;;;;3.07;2.80;;;10.40;51.20;;;;;;5075102;28;20593;-87
2022/01/24 11:13:18;;;;;;;5.47;4.50;;;10.20;50.30;;;;;;5058596;28;20471;-88
2022/01/24 11:15:55;;;;;;;7.10;3.90;;;9.90;52.20;;;;;;5055419;28;20467;-86
2022/01/24 11:18:22;;;;;;;4.90;4.13;;;10.00;51.60;;;;;;5054594;28;20460;-88
2022/01/24 11:20:51;;;;;;;5.47;4.50;;;10.10;51.60;;;;;;5066066;28;20467;-88
2022/01/24 11:23:21;;;;;;;4.80;4.13;;;10.30;50.90;;;;;;5068284;28;20503;-88
2022/01/24 11:25:49;;;;;;;6.87;4.70;;;10.20;51.20;;;;;;5048575;28;20996;-85
2022/01/24 11:28:18;;;;;;;6.43;5.13;;;10.20;51.20;;;;;;5046871;28;20449;-86
2022/01/24 11:30:51;;;;;;;6.10;4.77;;;10.10;50.80;;;;;;5054980;28;20490;-86
2022/01/24 11:33:21;;;;;;;6.30;4.17;;;10.20;51.30;;;;;;5084089;28;20478;-86
2022/01/24 11:35:52;;;;;;;6.73;4.40;;;10.20;51.00;;;;;;5075061;28;20531;-84
2022/01/24 11:38:33;;;;;;;6.17;3.80;;;10.20;50.80;;;;;;5055763;28;20495;-85
2022/01/24 11:41:03;;;;;;;5.07;3.93;;;10.20;51.20;;;;;;5066090;28;20551;-85
2022/01/24 11:43:34;;;;;;;6.70;4.10;;;10.20;50.80;;;;;;5062641;28;20635;-85
2022/01/24 11:46:07;;;;;;;10.27;5.90;;;10.30;51.10;;;;;;5061937;28;20462;-85
2022/01/24 11:48:35;;;;;;;6.60;5.23;;;10.50;51.30;;;;;;5030642;28;20499;-85
2022/01/24 11:51:06;;;;;;;6.67;4.50;;;10.60;50.60;;;;;;5051121;28;20436;-86
2022/01/24 11:53:41;;;;;;;4.83;4.40;;;10.30;50.00;;;;;;5047185;28;20460;-86
2022/01/24 11:56:21;;;;;;;8.17;4.73;;;10.30;50.90;;;;;;5068234;28;20472;-85
2022/01/24 11:58:49;;;;;;;7.73;4.23;;;10.40;50.80;;;;;;5063149;28;20451;-83
2022/01/24 12:01:35;;;;;;;7.60;4.67;;;10.30;51.20;;;;;;5068196;28;20472;-85
2022/01/24 12:04:03;;;;;;;6.67;4.97;;;10.10;51.10;;;;;;5054047;28;20473;-85
2022/01/24 12:06:30;;;;;;;4.33;3.90;;;10.10;51.30;;;;;;5083515;28;20467;-85
2022/01/24 12:09:06;;;;;;;7.07;5.07;;;10.10;51.20;;;;;;5051385;28;20959;-85
2022/01/24 12:11:36;;;;;;;8.00;5.03;;;10.30;51.60;;;;;;5062862;28;20506;-86
2022/01/24 12:14:13;;;;;;;8.53;5.50;;;9.90;52.70;;;;;;5067600;28;20522;-86
2022/01/24 12:16:42;;;;;;;7.70;5.30;;;9.90;52.90;;;;;;5070504;28;20982;-86
2022/01/24 12:19:11;;;;;;;8.60;5.80;;;10.10;52.20;;;;;;5056073;28;20455;-85
2022/01/24 12:21:39;;;;;;;9.47;6.63;;;10.40;51.60;;;;;;5046566;28;20441;-84
2022/01/24 12:24:10;;;;;;;6.23;5.10;;;10.40;51.50;;;;;;5044954;28;20482;-85
2022/01/24 12:26:40;;;;;;;4.30;3.70;;;10.40;51.20;;;;;;5083800;28;20539;-84
2022/01/24 12:29:10;;;;;;;7.87;5.87;;;10.20;51.40;;;;;;5048248;28;20448;-83
2022/01/24 12:31:44;;;;;;;9.80;6.40;;;10.30;51.50;;;;;;5061687;28;21657;-85
2022/01/24 12:34:14;;;;;;;5.80;4.70;;;10.10;51.30;;;;;;5044784;28;20475;-84
2022/01/24 12:37:08;;;;;;;6.67;4.63;;;10.30;51.70;;;;;;5066700;28;20455;-85
2022/01/24 12:39:48;;;;;;;6.23;4.97;;;10.30;51.00;;;;;;5049484;28;20447;-84
2022/01/24 12:42:26;;;;;;;5.23;4.20;;;10.30;51.40;;;;;;5046154;28;20729;-85
2022/01/24 12:47:38;;;;;;;14.23;5.10;;;10.20;51.00;;;;;;5018587;28;20451;-81
2022/01/24 12:50:06;;;;;;;11.30;5.40;;;10.20;51.60;;;;;;5079091;28;20460;-86
2022/01/24 12:52:33;;;;;;;7.70;6.20;;;10.10;51.70;;;;;;5048819;28;21021;-85
2022/01/24 12:55:03;;;;;;;8.60;4.43;;;10.30;51.60;;;;;;5070852;28;20459;-85
2022/01/24 12:57:37;;;;;;;10.10;5.90;;;10.40;51.20;;;;;;5060063;28;20540;-82
2022/01/24 13:00:08;;;;;;;7.17;5.37;;;10.40;50.90;;;;;;5063672;28;20501;-85
2022/01/24 13:02:38;;;;;;;7.27;4.83;;;10.10;50.80;;;;;;5062567;28;21034;-84
2022/01/24 13:05:07;;;;;;;6.33;4.27;;;10.10;51.60;;;;;;5057125;28;21194;-85
2022/01/24 13:07:34;;;;;;;6.03;5.20;;;10.10;51.40;;;;;;5063495;28;20449;-85
2022/01/24 13:10:09;;;;;;;7.23;4.80;;;10.10;51.30;;;;;;5064489;28;20504;-84
2022/01/24 13:12:36;;;;;;;5.73;5.13;;;9.80;52.70;;;;;;5065594;28;20542;-86
2022/01/24 13:15:07;;;;;;;10.60;5.00;;;10.00;52.20;;;;;;5050678;28;20480;-86
2022/01/24 13:23:09;;;;;;;9.70;5.77;;;10.10;51.80;;;;;;5034056;28;20917;-87
2022/01/24 13:25:39;;;;;;;13.27;6.63;;;10.10;51.70;;;;;;5074262;28;20462;-85
2022/01/24 13:28:09;;;;;;;8.97;5.17;;;10.20;51.50;;;;;;5032389;28;20543;-87
2022/01/24 13:30:38;;;;;;;7.77;5.63;;;10.10;51.10;;;;;;5065584;28;20477;-88
2022/01/24 13:33:08;;;;;;;6.97;5.63;;;10.20;51.70;;;;;;5050518;28;20479;-87
2022/01/24 13:35:37;;;;;;;5.87;5.27;;;10.30;51.90;;;;;;5048970;28;20448;-87
2022/01/24 13:38:06;;;;;;;9.70;6.93;;;9.90;52.60;;;;;;5048172;28;20443;-87
2022/01/24 13:40:40;;;;;;;7.80;4.40;;;10.00;52.00;;;;;;5050209;28;20445;-87
2022/01/24 13:43:09;;;;;;;13.50;6.53;;;10.10;51.70;;;;;;5057948;28;20993;-87
2022/01/24 13:45:37;;;;;;;8.80;6.03;;;10.30;51.60;;;;;;5061610;28;20820;-83
2022/01/24 13:48:07;;;;;;;9.87;7.30;;;10.50;51.20;;;;;;5060425;28;20448;-87
2022/01/24 13:50:35;;;;;;;7.67;5.60;;;10.60;51.30;;;;;;5078149;28;20467;-86
2022/01/24 13:53:02;;;;;;;4.43;4.00;;;10.70;51.00;;;;;;5060627;28;20472;-87
2022/01/24 13:55:29;;;;;;;9.03;6.03;;;10.10;50.70;;;;;;5074779;28;20468;-87
2022/01/24 13:57:57;;;;;;;10.93;7.30;;;10.00;51.90;;;;;;5035027;28;20475;-88
2022/01/24 14:00:28;;;;;;;24.50;7.30;;;10.10;51.90;;;;;;5066951;28;20471;-87
2022/01/24 14:03:09;;;;;;;9.93;7.20;;;10.40;51.80;;;;;;5066104;28;20552;-87
2022/01/24 14:05:36;;;;;;;8.77;5.97;;;10.50;51.30;;;;;;5084341;28;20483;-86
2022/01/24 14:08:16;;;;;;;16.50;7.90;;;10.50;51.10;;;;;;5077664;28;20552;-87
2022/01/24 14:10:44;;;;;;;37.40;20.47;;;10.60;51.20;;;;;;5045161;28;20447;-87
2022/01/24 14:13:20;;;;;;;32.57;17.60;;;10.70;51.20;;;;;;5049071;28;20465;-87
2022/01/24 14:15:54;;;;;;;50.93;26.40;;;10.70;51.00;;;;;;5060572;28;20480;-87
2022/01/24 14:18:28;;;;;;;158.93;55.40;;;10.90;50.90;;;;;;5056894;28;20641;-86
2022/01/24 14:20:56;;;;;;;119.57;56.07;;;10.50;51.20;;;;;;5046841;28;20445;-86
2022/01/24 14:23:26;;;;;;;41.63;23.37;;;10.10;51.50;;;;;;5045607;28;20483;-87
2022/01/24 14:25:53;;;;;;;31.33;17.70;;;9.90;52.60;;;;;;5068326;28;20479;-86